Time;durP1;ratioP1;P1;durP2;ratioP2;P2;SDS_P1;SDS_P2;PMS_P1;PMS_P2;Temp;Humidity;BMP_temperature;BMP_pressure;BME280_temperature;BME280_humidity;BME280_pressure;Samples;Min_cycle;Max_cycle;Signal;HPM_P1;HPM_P2
2022/05/23 00:35:59;;;;;;;7.25;3.53;;;15.30;99.90;;;;;;4843110;24;20281;-91
2022/05/23 04:31:38;;;;;;;8.20;4.50;;;19.40;95.80;;;;;;5907298;23;20033;31
2022/05/23 05:15:18;;;;;;;10.43;4.88;;;19.50;95.90;;;;;;4849470;29;20056;-91
2022/05/23 07:20:01;;;;;;;8.55;4.75;;;19.70;96.50;;;;;;5170747;24;20088;-89
2022/05/23 07:22:27;;;;;;;10.48;5.97;;;19.70;96.60;;;;;;4814811;29;20030;-90
2022/05/23 09:36:40;;;;;;;11.23;5.72;;;24.30;92.60;;;;;;5157707;23;20345;-95
2022/05/23 09:58:53;;;;;;;9.57;5.97;;;25.50;90.00;;;;;;4858183;23;20952;-83
2022/05/23 10:01:46;;;;;;;10.55;6.13;;;24.10;90.00;;;;;;4790023;29;20042;-83
2022/05/23 12:09:36;;;;;;;8.18;4.10;;;32.40;53.50;;;;;;4875604;29;20093;-93
2022/05/23 12:12:58;;;;;;;7.65;3.97;;;34.80;52.80;;;;;;4854235;29;20315;-96
2022/05/23 15:20:36;;;;;;;10.25;5.57;;;22.80;92.90;;;;;;5002408;23;20024;-86
2022/05/23 15:23:12;;;;;;;10.02;5.20;;;22.80;93.40;;;;;;5071261;24;20031;31
2022/05/23 15:25:54;;;;;;;13.95;6.47;;;23.20;93.70;;;;;;4791636;29;20125;-91
2022/05/23 15:28:29;;;;;;;12.52;6.03;;;22.40;94.70;;;;;;4778949;29;20038;-93
2022/05/23 15:31:26;;;;;;;12.00;5.35;;;22.20;94.90;;;;;;4782576;29;20101;-93
2022/05/23 16:06:32;;;;;;;24.45;7.45;;;20.00;99.90;;;;;;5316471;23;20221;-85
2022/05/23 16:54:54;;;;;;;16.77;4.90;;;18.10;99.90;;;;;;5945528;23;20032;31
2022/05/23 16:57:20;;;;;;;10.55;4.43;;;18.10;99.90;;;;;;4838106;29;20060;-86
2022/05/23 17:24:36;;;;;;;10.27;4.65;;;18.10;99.90;;;;;;5445067;24;20752;-86
2022/05/23 17:44:17;;;;;;;10.80;4.15;;;18.00;99.90;;;;;;4867521;23;20067;-87
2022/05/23 18:28:30;;;;;;;9.70;4.22;;;17.50;99.90;;;;;;4809287;29;20063;-90
2022/05/23 18:31:03;;;;;;;9.00;3.92;;;17.40;99.90;;;;;;5142659;24;20060;-92
2022/05/23 18:44:12;;;;;;;9.63;3.90;;;17.10;99.90;;;;;;4940942;23;20057;-86
2022/05/23 18:54:35;;;;;;;9.40;4.45;;;17.00;99.90;;;;;;2830834;23;20098;-84
2022/05/23 19:07:30;;;;;;;9.48;4.15;;;16.90;99.90;;;;;;4885651;23;20061;-87
2022/05/23 19:17:33;;;;;;;10.82;5.82;;;16.80;99.90;;;;;;4895304;23;20048;-86
2022/05/23 19:20:44;;;;;;;14.68;6.57;;;16.70;99.90;;;;;;4852443;29;20049;-88
2022/05/23 19:23:40;;;;;;;10.30;5.20;;;16.70;99.90;;;;;;4857960;29;20032;-85
2022/05/23 19:26:40;;;;;;;10.27;4.75;;;16.70;99.90;;;;;;5022487;23;20064;-93
2022/05/23 19:29:12;;;;;;;12.85;5.55;;;16.50;99.90;;;;;;4945681;23;20049;-88
2022/05/23 19:31:59;;;;;;;14.80;6.00;;;16.50;99.90;;;;;;4830798;29;20042;-85
2022/05/23 19:34:26;;;;;;;10.60;5.22;;;17.30;99.90;;;;;;4831880;29;20752;-90
2022/05/23 19:39:43;;;;;;;8.75;4.90;;;16.60;99.90;;;;;;4941568;23;20068;-89
2022/05/23 19:42:24;;;;;;;10.00;5.13;;;14.80;99.90;;;;;;4846413;29;20096;-93
2022/05/23 19:44:52;;;;;;;11.60;5.30;;;17.10;99.90;;;;;;4853913;29;20024;-83
2022/05/23 19:50:08;;;;;;;10.85;5.63;;;16.40;99.90;;;;;;4886733;23;20102;-84
2022/05/23 19:52:56;;;;;;;11.32;5.75;;;16.40;99.90;;;;;;4865165;29;20033;-92
2022/05/23 19:55:41;;;;;;;16.27;5.47;;;16.40;99.90;;;;;;4871107;29;20045;-84
2022/05/23 19:58:14;;;;;;;12.07;5.65;;;;;;;;;;4853332;29;20029;-82
2022/05/23 20:11:45;;;;;;;13.55;6.60;;;16.30;99.90;;;;;;4812140;24;1304511;-85
2022/05/23 20:17:25;;;;;;;12.40;5.68;;;;;;;;;;4883746;29;20041;-84
2022/05/23 20:34:10;;;;;;;8.30;4.53;;;;;;;;;;4115970;27;20046;-82
2022/05/23 20:41:47;;;;;;;12.68;5.88;;;;;;;;;;4454283;27;20058;-84
2022/05/23 20:44:23;;;;;;;10.27;5.22;;;16.30;99.90;;;;;;4843648;29;20042;-85
2022/05/23 20:47:08;;;;;;;12.40;5.90;;;16.30;99.90;;;;;;4845273;29;20037;-87
2022/05/23 20:49:43;;;;;;;9.85;5.45;;;16.30;99.90;;;;;;4842459;29;20049;-90
2022/05/23 20:52:12;;;;;;;11.02;5.53;;;16.30;99.90;;;;;;4835460;29;20101;-86
2022/05/23 20:54:38;;;;;;;10.32;5.07;;;16.30;99.90;;;;;;4829912;29;20042;-90
2022/05/23 20:57:06;;;;;;;11.80;6.18;;;16.40;99.90;;;;;;4851381;23;20090;-91
2022/05/23 20:59:44;;;;;;;10.07;4.43;;;16.30;99.90;;;;;;4826523;24;20058;-89
2022/05/23 21:02:21;;;;;;;9.68;5.18;;;20.20;99.90;;;;;;4816149;29;20025;-92
2022/05/23 21:05:02;;;;;;;11.50;5.35;;;16.30;99.90;;;;;;4816332;29;20030;-92
2022/05/23 21:07:45;;;;;;;11.93;5.68;;;16.50;99.90;;;;;;4826337;29;20026;-93
2022/05/23 21:10:11;;;;;;;10.50;5.68;;;16.30;99.90;;;;;;4834771;24;20129;-91
2022/05/23 21:15:41;;;;;;;11.23;5.70;;;16.30;99.90;;;;;;4796696;29;20163;-88
2022/05/23 21:18:09;;;;;;;12.93;5.55;;;16.30;99.90;;;;;;4778628;29;20065;-88
2022/05/23 21:20:41;;;;;;;17.13;6.53;;;16.20;99.90;;;;;;4779092;29;20038;-90
2022/05/23 21:23:06;;;;;;;11.30;5.65;;;16.70;99.90;;;;;;4777343;29;20420;-88
2022/05/23 21:25:48;;;;;;;11.13;5.15;;;;;;;;;;4775433;29;20035;-89
2022/05/23 21:28:14;;;;;;;12.32;4.95;;;16.20;99.90;;;;;;4775532;29;20027;-86
2022/05/23 21:30:56;;;;;;;10.18;5.13;;;16.10;99.90;;;;;;4775214;29;20246;-89
2022/05/23 21:33:40;;;;;;;10.85;6.03;;;16.80;99.90;;;;;;4776914;29;20039;-86
2022/05/23 21:36:21;;;;;;;12.20;5.57;;;17.30;99.90;;;;;;4806384;24;20528;-90
2022/05/23 21:38:47;;;;;;;12.90;4.97;;;;;;;;;;4995345;23;20060;-88
2022/05/23 21:51:42;;;;;;;11.85;5.93;;;15.90;99.90;;;;;;4978567;23;20073;-88
2022/05/23 21:54:08;;;;;;;14.35;7.15;;;16.00;99.90;;;;;;4838626;29;20042;-87
2022/05/23 21:56:34;;;;;;;10.63;5.70;;;15.90;99.90;;;;;;4835346;29;20309;-88
2022/05/23 21:59:00;;;;;;;11.98;5.50;;;15.80;99.90;;;;;;4820820;29;20038;-89
2022/05/23 22:04:10;;;;;;;10.57;5.35;;;16.50;99.90;;;;;;4829501;29;20053;-87
2022/05/23 22:06:37;;;;;;;13.82;6.05;;;15.00;99.90;;;;;;4812516;29;20026;-87
2022/05/23 22:09:04;;;;;;;12.90;4.85;;;15.80;99.90;;;;;;4812330;29;20026;-87
2022/05/23 22:11:40;;;;;;;;;;;;;;;;;;;;;
2022/05/23 22:14:12;;;;;;;12.75;5.70;;;15.70;99.90;;;;;;4829038;29;20545;-95
2022/05/23 22:16:46;;;;;;;11.05;5.10;;;15.70;99.90;;;;;;4813344;29;20230;-89
2022/05/23 22:19:25;;;;;;;11.02;5.53;;;15.70;99.90;;;;;;4812118;29;20053;-90
2022/05/23 22:22:06;;;;;;;14.23;6.15;;;15.60;99.90;;;;;;4812271;29;20057;-89
2022/05/23 22:24:32;;;;;;;11.13;5.47;;;15.60;99.90;;;;;;4811583;29;20067;-88
2022/05/23 22:26:58;;;;;;;8.90;4.88;;;15.60;99.90;;;;;;4812005;29;20078;-87
2022/05/23 22:29:31;;;;;;;10.98;5.78;;;15.60;99.90;;;;;;4821332;29;20026;-91
2022/05/23 22:32:03;;;;;;;10.75;6.03;;;15.60;99.90;;;;;;4826012;24;20257;-90
2022/05/23 22:34:39;;;;;;;11.93;5.70;;;15.60;99.90;;;;;;4827337;29;20809;-90
2022/05/23 22:37:14;;;;;;;12.35;6.00;;;15.70;99.90;;;;;;4839638;24;20059;-88
2022/05/23 22:39:45;;;;;;;17.08;9.70;;;15.70;99.90;;;;;;4836473;29;20340;-90
2022/05/23 22:42:15;;;;;;;25.65;13.35;;;15.60;99.90;;;;;;4832702;24;20054;-89
2022/05/23 22:45:02;;;;;;;24.73;13.00;;;15.70;99.90;;;;;;4812065;29;20048;-88
2022/05/23 22:47:34;;;;;;;19.85;11.20;;;15.60;99.90;;;;;;4811636;29;20026;-91
2022/05/23 22:50:00;;;;;;;11.68;7.18;;;15.60;99.90;;;;;;4828091;29;20494;-86
2022/05/23 22:52:26;;;;;;;9.93;5.20;;;;;;;;;;4811245;29;20033;-89
2022/05/23 22:54:52;;;;;;;10.77;5.40;;;15.50;99.90;;;;;;4811573;29;20666;-87
2022/05/23 22:57:43;;;;;;;9.13;5.22;;;15.40;99.90;;;;;;4811874;29;20061;-92
2022/05/23 23:00:15;;;;;;;14.82;6.10;;;15.40;99.90;;;;;;4809198;29;20042;-88
2022/05/23 23:05:37;;;;;;;8.73;4.43;;;;;;;;;;4810286;29;20045;-88
2022/05/23 23:08:12;;;;;;;12.25;5.22;;;15.30;99.90;;;;;;4803781;24;20061;-89
2022/05/23 23:10:41;;;;;;;11.80;5.82;;;14.40;99.90;;;;;;4811952;29;20030;-91
2022/05/23 23:13:22;;;;;;;10.50;6.00;;;15.60;99.90;;;;;;4811724;29;20256;-90
2022/05/23 23:15:50;;;;;;;10.50;6.15;;;15.80;99.90;;;;;;4811409;29;20313;-91
2022/05/23 23:18:16;;;;;;;10.60;6.22;;;15.20;99.90;;;;;;4812006;29;20041;-88
2022/05/23 23:25:48;;;;;;;11.13;5.88;;;15.10;99.90;;;;;;4856744;23;20061;-91
2022/05/23 23:31:17;;;;;;;11.90;5.70;;;15.10;99.90;;;;;;4849680;23;20071;-91
2022/05/23 23:39:42;;;;;;;10.85;5.53;;;15.00;99.90;;;;;;4854868;23;20401;-89
2022/05/23 23:42:08;;;;;;;10.20;4.85;;;14.90;99.90;;;;;;4845854;29;20041;-89
2022/05/23 23:44:34;;;;;;;11.65;5.38;;;15.00;99.90;;;;;;4829241;29;20693;-89
2022/05/23 23:47:12;;;;;;;10.15;5.78;;;14.90;99.90;;;;;;4829759;29;20124;-93
2022/05/23 23:49:53;;;;;;;12.25;6.20;;;14.80;99.90;;;;;;4836940;23;20025;-90
2022/05/23 23:52:44;;;;;;;11.38;5.55;;;14.80;99.90;;;;;;4812475;29;20046;-89
2022/05/23 23:55:13;;;;;;;15.00;6.45;;;14.80;99.90;;;;;;4830643;29;20138;-90
2022/05/23 23:57:55;;;;;;;11.25;5.60;;;14.70;99.90;;;;;;4814970;29;20022;-88
